Sheldon, Vermont
Current Conditions -  °F | °C
As of 5:15 PM on Sunday 25 Jan 2015 (Local Time) from KFSO Reporting Station
Clear Clear  
Wind Chill:   Ceiling: Unl
Heat Index:   Visibility: 10mi
Dew Point: -4°   Wind: 0mph
Humidity: 60%   Direction: NA
Pressure: 29.95"   Gusts: NA
Location:  44.88°N, 72.94°W
Report Text: KFSO 252215Z AUTO 00000KT 10SM CLR M14/M20 A2995 RMK AO2 T11381200
Loading
Personal Weather Stations






























Interactive Weather Map New forecast layout! Learn more

10-Day Weather Forecast

Advertisements
Track Severe Weather on mobile